Hinkley, CA

12:27 AM PDT on July 31, 2014 (GMT -0700)
Barstow-Daggett (KDAG) Elev 1926 ft | 34.85 °N, 116.79 °W | Change Station

Current weather conditions updated 37 minutes ago

Clear
Clear
90 °F
Feels Like 90 °F
N
12
Wind Variable Wind from West

Today is forecast to be nearly the same temperature as yesterday.

Today
High -- | Low -- °F
--% Chance of Precip.
Yesterday
High -- | Low -- °F
Precip. -- in
5:57 AM 7:52 PM
Waxing Crescent, 16% visible
Pressure 29.86 in
Visibility 10.0 miles
Clouds Clear
Dew Point 50 °F
Humidity 25%
Rainfall 0.00 in
Snow Depth Not available.
UV 0 out of 12
Pollen 3.90 out of 12
Ozone Good
Flu Activity Not available.
METAR KDAG 310650Z AUTO 26010KT 10SM CLR 32/10 A2995 RMK AO2 SLP109 T03220100

More Conditions Fewer Conditions

Pressure 29.86 in
Visibility 10.0 miles
Clouds Clear
Dew Point 50 °F
Humidity 25%
Rainfall 0.00 in
Snow Depth Not available.
UV 0 out of 12
Pollen 3.90 out of 12
Ozone Good
Flu Activity Not available.
METAR KDAG 310650Z AUTO 26010KT 10SM CLR 32/10 A2995 RMK AO2 SLP109 T03220100

More Conditions Fewer Conditions

10-Day Weather Forecast

Almanac

Astronomy

Jul. 31, 2014 Rise Set
Actual Time 5:57 AM PDT 7:52 PM PDT
Civil Twilight 5:29 AM PDT 8:19 PM PDT
Nautical Twilight 4:56 AM PDT 8:53 PM PDT
Astronomical Twilight 4:19 AM PDT 9:29 PM PDT
Moon 10:16 AM PDT 10:20 PM PDT
Length of Visible Light 14h 50m
Length of Day
13h 54m
Tomorrow will be 1m 36s shorter.
Waxing Crescent, 16% of the Moon is Illuminated
Today
Waxing Crescent
Aug 3
First Quarter
Aug 10
Full
Aug 17
Last Quarter
Aug 25
New

Community

WunderPhotos

Upload Photos

1,739,257 photos uploaded!

Nearby

Air Quality

  Air Quality AQ Index Pollutant
Yesterday Moderate
OZONE
Current Good
OZONE
Thursday Good
PM10
Thursday Good
OZONE
Thursday Good
CO
Thursday Good
NO2

Snow Depth

Station Depth Elevation
Leavitt Lake 0 in 9400 ft
Leavitt Meadows 1 in 7200 ft
Monitor Pass 0 in 8350 ft
Echo Peak 0 in 7800 ft
Squaw Valley 0 in 8200 ft

Earthquake Activity

City Distance Mag. Time & Date
Lone Pine, California 139 miles 2.5 12:36 PM PDT
2014-07-26
Westmorland, California 149 miles 2.8 1:38 AM PDT
2014-07-26
Minimum magnitude displayed is 2.5.

Coastal Water Temperatures

Place Temperature
No Stations Reporting

Nearby Weather Stations

Station Location Temp. Heat Index Dew Point Humidity Wind Precip. Elev Updated Type
BYRD STATION, Helendale (Silver Lakes), CA 82.8 °F 81 °F 50 °F 32% South  at  2.0 mph 0.00 in / hr 2488 ft 12:27 AM PDT Rapid Fire
RAWS APPLE VALLEY 2 CA, Apple Valley, CA 82 °F 80 °F 47 °F 30% North  at  0 mph 0.00 in / hr 3159 ft 11:50 PM PDT MADIS

Show More Stations Show Fewer Stations